sensor_id;sensor_type;location;lat;lon;timestamp;P1;durP1;ratioP1;P2;durP2;ratioP2
2386;SDS011;49473;50.772;8.768;2023-11-22T00:00:11;5.27;;;4.13;;
2386;SDS011;49473;50.772;8.768;2023-11-22T00:02:39;5.43;;;4.83;;
2386;SDS011;49473;50.772;8.768;2023-11-22T00:05:06;4.87;;;4.37;;
2386;SDS011;49473;50.772;8.768;2023-11-22T00:07:34;4.77;;;4.37;;
2386;SDS011;49473;50.772;8.768;2023-11-22T00:10:02;4.43;;;4.03;;
2386;SDS011;49473;50.772;8.768;2023-11-22T00:12:29;4.97;;;4.37;;
2386;SDS011;49473;50.772;8.768;2023-11-22T00:15:02;6.07;;;4.10;;
2386;SDS011;49473;50.772;8.768;2023-11-22T00:17:31;4.37;;;4.07;;
2386;SDS011;49473;50.772;8.768;2023-11-22T00:19:58;4.70;;;4.30;;
2386;SDS011;49473;50.772;8.768;2023-11-22T00:22:25;5.23;;;4.73;;
2386;SDS011;49473;50.772;8.768;2023-11-22T00:24:52;5.20;;;4.70;;
2386;SDS011;49473;50.772;8.768;2023-11-22T00:27:19;5.50;;;4.87;;
2386;SDS011;49473;50.772;8.768;2023-11-22T00:29:47;5.80;;;4.33;;
2386;SDS011;49473;50.772;8.768;2023-11-22T00:32:15;5.70;;;4.13;;
2386;SDS011;49473;50.772;8.768;2023-11-22T00:34:41;4.00;;;3.27;;
2386;SDS011;49473;50.772;8.768;2023-11-22T00:37:08;4.33;;;4.00;;
2386;SDS011;49473;50.772;8.768;2023-11-22T00:39:35;3.90;;;3.60;;
2386;SDS011;49473;50.772;8.768;2023-11-22T00:42:02;3.40;;;3.10;;
2386;SDS011;49473;50.772;8.768;2023-11-22T00:44:29;3.20;;;2.83;;
2386;SDS011;49473;50.772;8.768;2023-11-22T00:46:56;3.57;;;3.27;;
2386;SDS011;49473;50.772;8.768;2023-11-22T00:49:24;3.33;;;3.00;;
2386;SDS011;49473;50.772;8.768;2023-11-22T00:51:51;3.27;;;2.97;;
2386;SDS011;49473;50.772;8.768;2023-11-22T00:54:18;3.37;;;3.00;;
2386;SDS011;49473;50.772;8.768;2023-11-22T00:56:45;3.20;;;2.70;;
2386;SDS011;49473;50.772;8.768;2023-11-22T00:59:11;3.60;;;3.20;;
2386;SDS011;49473;50.772;8.768;2023-11-22T01:01:39;4.03;;;3.10;;
2386;SDS011;49473;50.772;8.768;2023-11-22T01:04:06;2.97;;;2.70;;
2386;SDS011;49473;50.772;8.768;2023-11-22T01:06:34;4.53;;;2.80;;
2386;SDS011;49473;50.772;8.768;2023-11-22T01:09:02;3.13;;;2.93;;
2386;SDS011;49473;50.772;8.768;2023-11-22T01:11:28;4.17;;;3.83;;
2386;SDS011;49473;50.772;8.768;2023-11-22T01:13:55;4.87;;;3.30;;
2386;SDS011;49473;50.772;8.768;2023-11-22T01:16:22;3.13;;;2.90;;
2386;SDS011;49473;50.772;8.768;2023-11-22T01:18:49;5.57;;;2.97;;
2386;SDS011;49473;50.772;8.768;2023-11-22T01:21:17;3.23;;;2.73;;
2386;SDS011;49473;50.772;8.768;2023-11-22T01:23:45;5.23;;;3.17;;
2386;SDS011;49473;50.772;8.768;2023-11-22T01:26:12;3.70;;;3.40;;
2386;SDS011;49473;50.772;8.768;2023-11-22T01:28:39;3.30;;;2.83;;
2386;SDS011;49473;50.772;8.768;2023-11-22T01:31:10;3.80;;;3.20;;
2386;SDS011;49473;50.772;8.768;2023-11-22T01:33:38;4.47;;;3.00;;
2386;SDS011;49473;50.772;8.768;2023-11-22T01:36:05;3.30;;;2.80;;
2386;SDS011;49473;50.772;8.768;2023-11-22T01:38:32;3.77;;;3.37;;
2386;SDS011;49473;50.772;8.768;2023-11-22T01:41:00;3.27;;;2.97;;
2386;SDS011;49473;50.772;8.768;2023-11-22T01:43:27;3.37;;;3.07;;
2386;SDS011;49473;50.772;8.768;2023-11-22T01:45:54;3.40;;;2.93;;
2386;SDS011;49473;50.772;8.768;2023-11-22T01:48:21;3.43;;;3.10;;
2386;SDS011;49473;50.772;8.768;2023-11-22T01:50:48;3.30;;;3.00;;
2386;SDS011;49473;50.772;8.768;2023-11-22T01:53:15;3.57;;;3.20;;
2386;SDS011;49473;50.772;8.768;2023-11-22T01:55:43;3.67;;;3.00;;
2386;SDS011;49473;50.772;8.768;2023-11-22T01:58:12;3.33;;;3.03;;
2386;SDS011;49473;50.772;8.768;2023-11-22T02:00:42;4.07;;;3.30;;
2386;SDS011;49473;50.772;8.768;2023-11-22T02:03:11;3.50;;;2.70;;
2386;SDS011;49473;50.772;8.768;2023-11-22T02:05:39;4.10;;;3.70;;
2386;SDS011;49473;50.772;8.768;2023-11-22T02:08:07;3.50;;;3.20;;
2386;SDS011;49473;50.772;8.768;2023-11-22T02:10:34;4.17;;;3.77;;
2386;SDS011;49473;50.772;8.768;2023-11-22T02:13:01;7.10;;;3.80;;
2386;SDS011;49473;50.772;8.768;2023-11-22T02:15:31;6.30;;;4.07;;
2386;SDS011;49473;50.772;8.768;2023-11-22T02:17:58;3.77;;;3.40;;
2386;SDS011;49473;50.772;8.768;2023-11-22T02:20:25;4.47;;;3.67;;
2386;SDS011;49473;50.772;8.768;2023-11-22T02:22:51;4.47;;;4.07;;
2386;SDS011;49473;50.772;8.768;2023-11-22T02:25:20;3.83;;;3.53;;
2386;SDS011;49473;50.772;8.768;2023-11-22T02:27:47;3.97;;;3.63;;
2386;SDS011;49473;50.772;8.768;2023-11-22T02:30:14;3.70;;;3.40;;
2386;SDS011;49473;50.772;8.768;2023-11-22T02:32:41;3.80;;;3.50;;
2386;SDS011;49473;50.772;8.768;2023-11-22T02:35:09;4.43;;;4.03;;
2386;SDS011;49473;50.772;8.768;2023-11-22T02:37:35;5.90;;;4.50;;
2386;SDS011;49473;50.772;8.768;2023-11-22T02:40:04;4.70;;;3.73;;
2386;SDS011;49473;50.772;8.768;2023-11-22T02:42:37;3.73;;;3.43;;
2386;SDS011;49473;50.772;8.768;2023-11-22T02:45:04;5.60;;;4.30;;
2386;SDS011;49473;50.772;8.768;2023-11-22T02:47:31;4.30;;;4.00;;
2386;SDS011;49473;50.772;8.768;2023-11-22T02:49:59;4.20;;;3.80;;
2386;SDS011;49473;50.772;8.768;2023-11-22T02:52:26;4.00;;;3.57;;
2386;SDS011;49473;50.772;8.768;2023-11-22T02:54:53;3.63;;;3.33;;
2386;SDS011;49473;50.772;8.768;2023-11-22T02:57:20;4.50;;;3.90;;
2386;SDS011;49473;50.772;8.768;2023-11-22T02:59:48;3.50;;;3.20;;
2386;SDS011;49473;50.772;8.768;2023-11-22T03:02:15;3.60;;;3.30;;
2386;SDS011;49473;50.772;8.768;2023-11-22T03:04:42;3.47;;;3.17;;
2386;SDS011;49473;50.772;8.768;2023-11-22T03:07:09;4.10;;;3.03;;
2386;SDS011;49473;50.772;8.768;2023-11-22T03:09:36;3.43;;;3.10;;
2386;SDS011;49473;50.772;8.768;2023-11-22T03:12:03;5.13;;;3.80;;
2386;SDS011;49473;50.772;8.768;2023-11-22T03:14:31;3.80;;;3.50;;
2386;SDS011;49473;50.772;8.768;2023-11-22T03:16:59;4.53;;;3.40;;
2386;SDS011;49473;50.772;8.768;2023-11-22T03:19:26;4.43;;;4.03;;
2386;SDS011;49473;50.772;8.768;2023-11-22T03:21:53;3.93;;;3.63;;
2386;SDS011;49473;50.772;8.768;2023-11-22T03:24:21;3.90;;;3.50;;
2386;SDS011;49473;50.772;8.768;2023-11-22T03:26:47;4.23;;;3.67;;
2386;SDS011;49473;50.772;8.768;2023-11-22T03:29:15;4.37;;;3.97;;
2386;SDS011;49473;50.772;8.768;2023-11-22T03:31:43;4.03;;;3.33;;
2386;SDS011;49473;50.772;8.768;2023-11-22T03:34:13;7.20;;;4.70;;
2386;SDS011;49473;50.772;8.768;2023-11-22T03:36:40;3.40;;;3.10;;
2386;SDS011;49473;50.772;8.768;2023-11-22T03:39:06;5.43;;;3.80;;
2386;SDS011;49473;50.772;8.768;2023-11-22T03:41:35;4.83;;;3.90;;
2386;SDS011;49473;50.772;8.768;2023-11-22T03:44:02;4.53;;;4.13;;
2386;SDS011;49473;50.772;8.768;2023-11-22T03:46:29;5.40;;;4.37;;
2386;SDS011;49473;50.772;8.768;2023-11-22T03:48:56;9.27;;;5.20;;
2386;SDS011;49473;50.772;8.768;2023-11-22T03:51:24;6.07;;;4.47;;
2386;SDS011;49473;50.772;8.768;2023-11-22T03:53:51;5.67;;;4.00;;
2386;SDS011;49473;50.772;8.768;2023-11-22T03:56:18;6.13;;;4.77;;
2386;SDS011;49473;50.772;8.768;2023-11-22T03:58:46;4.43;;;4.03;;
2386;SDS011;49473;50.772;8.768;2023-11-22T04:01:13;5.80;;;5.20;;
2386;SDS011;49473;50.772;8.768;2023-11-22T04:03:41;7.40;;;4.50;;
2386;SDS011;49473;50.772;8.768;2023-11-22T04:06:07;7.03;;;3.20;;
2386;SDS011;49473;50.772;8.768;2023-11-22T04:08:35;3.87;;;3.40;;
2386;SDS011;49473;50.772;8.768;2023-11-22T04:11:03;6.07;;;3.87;;
2386;SDS011;49473;50.772;8.768;2023-11-22T04:13:30;4.40;;;4.00;;
2386;SDS011;49473;50.772;8.768;2023-11-22T04:15:57;7.20;;;4.47;;
2386;SDS011;49473;50.772;8.768;2023-11-22T04:18:23;4.03;;;3.37;;
2386;SDS011;49473;50.772;8.768;2023-11-22T04:20:51;5.97;;;3.83;;
2386;SDS011;49473;50.772;8.768;2023-11-22T04:23:18;4.40;;;3.90;;
2386;SDS011;49473;50.772;8.768;2023-11-22T04:25:47;4.80;;;3.90;;
2386;SDS011;49473;50.772;8.768;2023-11-22T04:28:14;6.27;;;3.80;;
2386;SDS011;49473;50.772;8.768;2023-11-22T04:30:42;5.60;;;4.20;;
2386;SDS011;49473;50.772;8.768;2023-11-22T04:33:08;4.83;;;3.83;;
2386;SDS011;49473;50.772;8.768;2023-11-22T04:35:35;4.33;;;3.93;;
2386;SDS011;49473;50.772;8.768;2023-11-22T04:38:03;4.23;;;3.83;;
2386;SDS011;49473;50.772;8.768;2023-11-22T04:40:30;6.70;;;4.43;;
2386;SDS011;49473;50.772;8.768;2023-11-22T04:42:58;4.37;;;3.93;;
2386;SDS011;49473;50.772;8.768;2023-11-22T04:45:25;4.50;;;3.83;;
2386;SDS011;49473;50.772;8.768;2023-11-22T04:47:52;4.73;;;4.10;;
2386;SDS011;49473;50.772;8.768;2023-11-22T04:50:22;4.20;;;3.87;;
2386;SDS011;49473;50.772;8.768;2023-11-22T04:52:49;4.23;;;3.83;;
2386;SDS011;49473;50.772;8.768;2023-11-22T04:55:16;6.53;;;3.77;;
2386;SDS011;49473;50.772;8.768;2023-11-22T04:57:45;5.50;;;3.50;;
2386;SDS011;49473;50.772;8.768;2023-11-22T05:00:14;3.40;;;3.10;;
2386;SDS011;49473;50.772;8.768;2023-11-22T05:02:42;4.27;;;3.53;;
2386;SDS011;49473;50.772;8.768;2023-11-22T05:05:09;5.23;;;3.70;;
2386;SDS011;49473;50.772;8.768;2023-11-22T05:07:36;4.17;;;3.77;;
2386;SDS011;49473;50.772;8.768;2023-11-22T05:10:03;3.80;;;3.40;;
2386;SDS011;49473;50.772;8.768;2023-11-22T05:12:33;4.03;;;3.63;;
2386;SDS011;49473;50.772;8.768;2023-11-22T05:14:59;4.50;;;3.40;;
2386;SDS011;49473;50.772;8.768;2023-11-22T05:17:28;3.30;;;3.00;;
2386;SDS011;49473;50.772;8.768;2023-11-22T05:19:55;3.57;;;3.27;;
2386;SDS011;49473;50.772;8.768;2023-11-22T05:22:22;3.50;;;3.20;;
2386;SDS011;49473;50.772;8.768;2023-11-22T05:24:48;3.50;;;3.20;;
2386;SDS011;49473;50.772;8.768;2023-11-22T05:27:15;3.40;;;2.50;;
2386;SDS011;49473;50.772;8.768;2023-11-22T05:29:43;3.63;;;3.10;;
2386;SDS011;49473;50.772;8.768;2023-11-22T05:32:09;3.70;;;3.07;;
2386;SDS011;49473;50.772;8.768;2023-11-22T05:34:37;2.80;;;2.60;;
2386;SDS011;49473;50.772;8.768;2023-11-22T05:37:05;4.10;;;3.20;;
2386;SDS011;49473;50.772;8.768;2023-11-22T05:39:32;3.17;;;2.97;;
2386;SDS011;49473;50.772;8.768;2023-11-22T05:41:59;3.30;;;3.00;;
2386;SDS011;49473;50.772;8.768;2023-11-22T05:44:25;2.90;;;2.70;;
2386;SDS011;49473;50.772;8.768;2023-11-22T05:46:52;4.20;;;3.53;;
2386;SDS011;49473;50.772;8.768;2023-11-22T05:49:19;3.20;;;2.90;;
2386;SDS011;49473;50.772;8.768;2023-11-22T05:51:47;4.43;;;4.03;;
2386;SDS011;49473;50.772;8.768;2023-11-22T05:54:15;9.10;;;4.47;;
2386;SDS011;49473;50.772;8.768;2023-11-22T05:56:42;6.43;;;4.47;;
2386;SDS011;49473;50.772;8.768;2023-11-22T05:59:09;5.00;;;3.60;;
2386;SDS011;49473;50.772;8.768;2023-11-22T06:01:37;5.07;;;4.20;;
2386;SDS011;49473;50.772;8.768;2023-11-22T06:04:03;3.70;;;3.40;;
2386;SDS011;49473;50.772;8.768;2023-11-22T06:06:34;4.03;;;3.63;;
2386;SDS011;49473;50.772;8.768;2023-11-22T06:09:02;6.10;;;5.70;;
2386;SDS011;49473;50.772;8.768;2023-11-22T06:11:30;5.23;;;4.73;;
2386;SDS011;49473;50.772;8.768;2023-11-22T06:13:57;5.00;;;4.60;;
2386;SDS011;49473;50.772;8.768;2023-11-22T06:16:23;8.20;;;4.20;;
2386;SDS011;49473;50.772;8.768;2023-11-22T06:18:50;3.90;;;3.60;;
2386;SDS011;49473;50.772;8.768;2023-11-22T06:21:17;4.60;;;3.80;;
2386;SDS011;49473;50.772;8.768;2023-11-22T06:23:44;8.20;;;3.93;;
2386;SDS011;49473;50.772;8.768;2023-11-22T06:26:12;3.97;;;3.63;;
2386;SDS011;49473;50.772;8.768;2023-11-22T06:28:40;4.20;;;3.80;;
2386;SDS011;49473;50.772;8.768;2023-11-22T06:31:07;7.00;;;4.10;;
2386;SDS011;49473;50.772;8.768;2023-11-22T06:33:34;3.70;;;3.30;;
2386;SDS011;49473;50.772;8.768;2023-11-22T06:36:01;3.53;;;3.23;;
2386;SDS011;49473;50.772;8.768;2023-11-22T06:38:28;4.50;;;2.60;;
2386;SDS011;49473;50.772;8.768;2023-11-22T06:40:55;3.53;;;3.23;;
2386;SDS011;49473;50.772;8.768;2023-11-22T06:43:23;3.23;;;2.90;;
2386;SDS011;49473;50.772;8.768;2023-11-22T06:45:50;3.60;;;2.80;;
2386;SDS011;49473;50.772;8.768;2023-11-22T06:48:16;3.23;;;2.70;;
2386;SDS011;49473;50.772;8.768;2023-11-22T06:50:44;2.90;;;2.73;;
2386;SDS011;49473;50.772;8.768;2023-11-22T06:53:10;6.43;;;3.00;;
2386;SDS011;49473;50.772;8.768;2023-11-22T06:55:37;2.80;;;2.60;;
2386;SDS011;49473;50.772;8.768;2023-11-22T06:58:04;4.97;;;3.00;;
2386;SDS011;49473;50.772;8.768;2023-11-22T07:00:34;4.10;;;2.97;;
2386;SDS011;49473;50.772;8.768;2023-11-22T07:03:01;4.90;;;3.40;;
2386;SDS011;49473;50.772;8.768;2023-11-22T07:05:28;3.43;;;3.13;;
2386;SDS011;49473;50.772;8.768;2023-11-22T07:07:55;4.80;;;4.10;;
2386;SDS011;49473;50.772;8.768;2023-11-22T07:10:22;4.83;;;4.30;;
2386;SDS011;49473;50.772;8.768;2023-11-22T07:12:49;4.47;;;4.07;;
2386;SDS011;49473;50.772;8.768;2023-11-22T07:15:16;4.00;;;3.70;;
2386;SDS011;49473;50.772;8.768;2023-11-22T07:17:44;6.40;;;3.50;;
2386;SDS011;49473;50.772;8.768;2023-11-22T07:20:11;5.10;;;3.40;;
2386;SDS011;49473;50.772;8.768;2023-11-22T07:22:41;4.10;;;3.70;;
2386;SDS011;49473;50.772;8.768;2023-11-22T07:25:08;3.87;;;3.10;;
2386;SDS011;49473;50.772;8.768;2023-11-22T07:27:43;3.10;;;2.90;;
2386;SDS011;49473;50.772;8.768;2023-11-22T07:30:10;4.10;;;3.63;;
2386;SDS011;49473;50.772;8.768;2023-11-22T07:32:39;3.80;;;3.10;;
2386;SDS011;49473;50.772;8.768;2023-11-22T07:35:07;4.63;;;3.60;;
2386;SDS011;49473;50.772;8.768;2023-11-22T07:37:34;3.57;;;3.27;;
2386;SDS011;49473;50.772;8.768;2023-11-22T07:40:04;3.30;;;3.00;;
2386;SDS011;49473;50.772;8.768;2023-11-22T07:42:33;4.73;;;3.73;;
2386;SDS011;49473;50.772;8.768;2023-11-22T07:44:59;3.93;;;3.40;;
2386;SDS011;49473;50.772;8.768;2023-11-22T07:47:26;4.03;;;3.17;;
2386;SDS011;49473;50.772;8.768;2023-11-22T07:49:54;4.40;;;3.30;;
2386;SDS011;49473;50.772;8.768;2023-11-22T07:52:22;3.73;;;3.43;;
2386;SDS011;49473;50.772;8.768;2023-11-22T07:54:54;3.83;;;3.47;;
2386;SDS011;49473;50.772;8.768;2023-11-22T07:57:21;5.30;;;4.03;;
2386;SDS011;49473;50.772;8.768;2023-11-22T07:59:48;3.63;;;3.33;;
2386;SDS011;49473;50.772;8.768;2023-11-22T08:02:15;3.80;;;3.50;;
2386;SDS011;49473;50.772;8.768;2023-11-22T08:04:43;3.53;;;3.07;;
2386;SDS011;49473;50.772;8.768;2023-11-22T08:07:11;3.90;;;3.47;;
2386;SDS011;49473;50.772;8.768;2023-11-22T08:09:41;3.30;;;3.00;;
2386;SDS011;49473;50.772;8.768;2023-11-22T08:12:08;3.60;;;3.30;;
2386;SDS011;49473;50.772;8.768;2023-11-22T08:14:36;4.73;;;3.40;;
2386;SDS011;49473;50.772;8.768;2023-11-22T08:17:03;3.70;;;3.40;;
2386;SDS011;49473;50.772;8.768;2023-11-22T08:19:30;3.70;;;3.30;;
2386;SDS011;49473;50.772;8.768;2023-11-22T08:21:57;3.60;;;3.30;;
2386;SDS011;49473;50.772;8.768;2023-11-22T08:24:24;3.90;;;3.40;;
2386;SDS011;49473;50.772;8.768;2023-11-22T08:26:52;5.50;;;3.63;;
2386;SDS011;49473;50.772;8.768;2023-11-22T08:29:19;3.93;;;3.63;;
2386;SDS011;49473;50.772;8.768;2023-11-22T08:31:45;3.57;;;3.27;;
2386;SDS011;49473;50.772;8.768;2023-11-22T08:34:13;3.83;;;3.53;;
2386;SDS011;49473;50.772;8.768;2023-11-22T08:36:40;3.37;;;3.07;;
2386;SDS011;49473;50.772;8.768;2023-11-22T08:39:07;3.10;;;2.83;;
2386;SDS011;49473;50.772;8.768;2023-11-22T08:41:33;3.70;;;3.30;;
2386;SDS011;49473;50.772;8.768;2023-11-22T08:44:02;4.10;;;3.70;;
2386;SDS011;49473;50.772;8.768;2023-11-22T08:46:29;3.80;;;3.40;;
2386;SDS011;49473;50.772;8.768;2023-11-22T08:48:56;5.10;;;3.70;;
2386;SDS011;49473;50.772;8.768;2023-11-22T08:51:22;3.60;;;3.30;;
2386;SDS011;49473;50.772;8.768;2023-11-22T08:53:49;3.57;;;3.27;;
2386;SDS011;49473;50.772;8.768;2023-11-22T08:56:16;4.00;;;3.20;;
2386;SDS011;49473;50.772;8.768;2023-11-22T08:58:42;3.60;;;3.30;;
2386;SDS011;49473;50.772;8.768;2023-11-22T09:01:11;8.10;;;3.10;;
2386;SDS011;49473;50.772;8.768;2023-11-22T09:03:39;3.80;;;3.40;;
2386;SDS011;49473;50.772;8.768;2023-11-22T09:06:06;3.73;;;3.43;;
2386;SDS011;49473;50.772;8.768;2023-11-22T09:08:33;3.40;;;3.10;;
2386;SDS011;49473;50.772;8.768;2023-11-22T09:11:00;3.90;;;3.50;;
2386;SDS011;49473;50.772;8.768;2023-11-22T09:13:30;3.60;;;3.30;;
2386;SDS011;49473;50.772;8.768;2023-11-22T09:15:57;2.97;;;2.77;;
2386;SDS011;49473;50.772;8.768;2023-11-22T09:18:25;3.40;;;3.10;;
2386;SDS011;49473;50.772;8.768;2023-11-22T09:20:52;3.37;;;3.07;;
2386;SDS011;49473;50.772;8.768;2023-11-22T09:23:19;3.10;;;2.80;;
2386;SDS011;49473;50.772;8.768;2023-11-22T09:25:46;3.63;;;3.33;;
2386;SDS011;49473;50.772;8.768;2023-11-22T09:28:13;3.13;;;2.93;;
2386;SDS011;49473;50.772;8.768;2023-11-22T09:30:41;3.93;;;3.53;;
2386;SDS011;49473;50.772;8.768;2023-11-22T09:33:09;4.03;;;3.63;;
2386;SDS011;49473;50.772;8.768;2023-11-22T09:35:39;3.90;;;3.57;;
2386;SDS011;49473;50.772;8.768;2023-11-22T09:38:06;3.23;;;2.83;;
2386;SDS011;49473;50.772;8.768;2023-11-22T09:40:39;3.63;;;3.33;;
2386;SDS011;49473;50.772;8.768;2023-11-22T09:43:07;2.80;;;2.70;;
2386;SDS011;49473;50.772;8.768;2023-11-22T09:45:34;3.10;;;2.90;;
2386;SDS011;49473;50.772;8.768;2023-11-22T09:48:03;3.40;;;3.10;;
2386;SDS011;49473;50.772;8.768;2023-11-22T09:50:38;3.37;;;3.10;;
2386;SDS011;49473;50.772;8.768;2023-11-22T09:53:14;3.43;;;3.13;;
2386;SDS011;49473;50.772;8.768;2023-11-22T09:55:48;3.20;;;2.97;;
2386;SDS011;49473;50.772;8.768;2023-11-22T09:58:15;3.43;;;3.10;;
2386;SDS011;49473;50.772;8.768;2023-11-22T10:00:43;3.63;;;3.33;;
2386;SDS011;49473;50.772;8.768;2023-11-22T10:03:10;3.80;;;3.50;;
2386;SDS011;49473;50.772;8.768;2023-11-22T10:05:39;3.77;;;3.47;;
2386;SDS011;49473;50.772;8.768;2023-11-22T10:08:08;3.73;;;3.20;;
2386;SDS011;49473;50.772;8.768;2023-11-22T10:10:35;3.13;;;2.93;;
2386;SDS011;49473;50.772;8.768;2023-11-22T10:13:03;3.40;;;3.10;;
2386;SDS011;49473;50.772;8.768;2023-11-22T10:15:30;3.57;;;2.97;;
2386;SDS011;49473;50.772;8.768;2023-11-22T10:17:58;4.00;;;3.60;;
2386;SDS011;49473;50.772;8.768;2023-11-22T10:20:31;3.27;;;2.97;;
2386;SDS011;49473;50.772;8.768;2023-11-22T10:23:04;3.27;;;3.00;;
2386;SDS011;49473;50.772;8.768;2023-11-22T10:25:35;2.93;;;2.73;;
2386;SDS011;49473;50.772;8.768;2023-11-22T10:28:02;3.07;;;2.80;;
2386;SDS011;49473;50.772;8.768;2023-11-22T10:30:29;4.00;;;2.53;;
2386;SDS011;49473;50.772;8.768;2023-11-22T10:32:56;5.10;;;3.10;;
2386;SDS011;49473;50.772;8.768;2023-11-22T10:35:23;3.10;;;2.87;;
2386;SDS011;49473;50.772;8.768;2023-11-22T10:37:52;3.37;;;2.83;;
2386;SDS011;49473;50.772;8.768;2023-11-22T10:40:20;3.20;;;2.90;;
2386;SDS011;49473;50.772;8.768;2023-11-22T10:42:49;3.80;;;3.27;;
2386;SDS011;49473;50.772;8.768;2023-11-22T10:45:17;6.30;;;5.90;;
2386;SDS011;49473;50.772;8.768;2023-11-22T10:47:44;3.90;;;3.60;;
2386;SDS011;49473;50.772;8.768;2023-11-22T10:50:12;3.40;;;3.10;;
2386;SDS011;49473;50.772;8.768;2023-11-22T10:52:40;3.33;;;3.03;;
2386;SDS011;49473;50.772;8.768;2023-11-22T10:55:08;3.17;;;2.87;;
2386;SDS011;49473;50.772;8.768;2023-11-22T10:57:44;2.60;;;2.40;;
2386;SDS011;49473;50.772;8.768;2023-11-22T11:00:13;3.07;;;2.87;;
2386;SDS011;49473;50.772;8.768;2023-11-22T11:02:44;3.67;;;3.47;;
2386;SDS011;49473;50.772;8.768;2023-11-22T11:05:15;3.20;;;2.90;;
2386;SDS011;49473;50.772;8.768;2023-11-22T11:07:44;2.83;;;2.63;;
2386;SDS011;49473;50.772;8.768;2023-11-22T11:10:17;2.60;;;2.40;;
2386;SDS011;49473;50.772;8.768;2023-11-22T11:12:47;5.03;;;2.77;;
2386;SDS011;49473;50.772;8.768;2023-11-22T11:15:14;3.20;;;3.00;;
2386;SDS011;49473;50.772;8.768;2023-11-22T11:17:43;3.53;;;3.03;;
2386;SDS011;49473;50.772;8.768;2023-11-22T11:20:13;3.67;;;3.20;;
2386;SDS011;49473;50.772;8.768;2023-11-22T11:22:42;3.83;;;2.57;;
2386;SDS011;49473;50.772;8.768;2023-11-22T11:25:13;5.73;;;3.17;;
2386;SDS011;49473;50.772;8.768;2023-11-22T11:27:43;3.60;;;2.90;;
2386;SDS011;49473;50.772;8.768;2023-11-22T11:33:11;3.33;;;3.03;;
2386;SDS011;49473;50.772;8.768;2023-11-22T11:35:41;3.07;;;2.70;;
2386;SDS011;49473;50.772;8.768;2023-11-22T11:38:11;3.20;;;2.60;;
2386;SDS011;49473;50.772;8.768;2023-11-22T11:40:39;3.97;;;2.67;;
2386;SDS011;49473;50.772;8.768;2023-11-22T11:43:07;3.20;;;2.90;;
2386;SDS011;49473;50.772;8.768;2023-11-22T11:45:35;4.03;;;3.67;;
2386;SDS011;49473;50.772;8.768;2023-11-22T11:48:05;4.00;;;3.17;;
2386;SDS011;49473;50.772;8.768;2023-11-22T11:50:33;2.80;;;2.60;;
2386;SDS011;49473;50.772;8.768;2023-11-22T11:52:59;4.37;;;3.53;;
2386;SDS011;49473;50.772;8.768;2023-11-22T11:55:27;2.63;;;2.37;;
2386;SDS011;49473;50.772;8.768;2023-11-22T11:57:54;3.00;;;2.80;;
2386;SDS011;49473;50.772;8.768;2023-11-22T12:00:21;3.40;;;2.97;;
2386;SDS011;49473;50.772;8.768;2023-11-22T12:02:50;3.13;;;2.77;;
2386;SDS011;49473;50.772;8.768;2023-11-22T12:05:19;3.00;;;2.80;;
2386;SDS011;49473;50.772;8.768;2023-11-22T12:07:46;2.90;;;2.70;;
2386;SDS011;49473;50.772;8.768;2023-11-22T12:10:13;3.33;;;2.70;;
2386;SDS011;49473;50.772;8.768;2023-11-22T12:12:42;4.13;;;2.83;;
2386;SDS011;49473;50.772;8.768;2023-11-22T12:15:10;2.70;;;2.50;;
2386;SDS011;49473;50.772;8.768;2023-11-22T12:17:38;3.13;;;2.90;;
2386;SDS011;49473;50.772;8.768;2023-11-22T12:20:09;2.97;;;2.70;;
2386;SDS011;49473;50.772;8.768;2023-11-22T12:22:38;3.10;;;2.90;;
2386;SDS011;49473;50.772;8.768;2023-11-22T12:25:06;3.07;;;2.87;;
2386;SDS011;49473;50.772;8.768;2023-11-22T12:27:33;3.17;;;2.97;;
2386;SDS011;49473;50.772;8.768;2023-11-22T12:30:04;2.90;;;2.70;;
2386;SDS011;49473;50.772;8.768;2023-11-22T12:32:32;3.10;;;2.90;;
2386;SDS011;49473;50.772;8.768;2023-11-22T12:34:59;2.70;;;2.50;;
2386;SDS011;49473;50.772;8.768;2023-11-22T12:37:26;2.73;;;2.53;;
2386;SDS011;49473;50.772;8.768;2023-11-22T12:39:55;3.53;;;2.67;;
2386;SDS011;49473;50.772;8.768;2023-11-22T12:42:22;2.80;;;2.60;;
2386;SDS011;49473;50.772;8.768;2023-11-22T12:44:49;3.30;;;3.10;;
2386;SDS011;49473;50.772;8.768;2023-11-22T12:47:30;3.30;;;2.57;;
2386;SDS011;49473;50.772;8.768;2023-11-22T12:50:00;4.43;;;2.97;;
2386;SDS011;49473;50.772;8.768;2023-11-22T12:52:27;3.00;;;2.80;;
2386;SDS011;49473;50.772;8.768;2023-11-22T12:54:55;3.00;;;2.80;;
2386;SDS011;49473;50.772;8.768;2023-11-22T12:57:22;3.40;;;3.10;;
2386;SDS011;49473;50.772;8.768;2023-11-22T12:59:49;3.20;;;2.80;;
2386;SDS011;49473;50.772;8.768;2023-11-22T13:02:16;4.80;;;3.07;;
2386;SDS011;49473;50.772;8.768;2023-11-22T13:04:43;2.93;;;2.73;;
2386;SDS011;49473;50.772;8.768;2023-11-22T13:07:10;3.40;;;3.10;;
2386;SDS011;49473;50.772;8.768;2023-11-22T13:09:37;3.07;;;2.87;;
2386;SDS011;49473;50.772;8.768;2023-11-22T13:12:06;3.40;;;2.90;;
2386;SDS011;49473;50.772;8.768;2023-11-22T13:14:32;4.40;;;3.67;;
2386;SDS011;49473;50.772;8.768;2023-11-22T13:17:03;4.30;;;3.97;;
2386;SDS011;49473;50.772;8.768;2023-11-22T13:19:31;3.43;;;3.10;;
2386;SDS011;49473;50.772;8.768;2023-11-22T13:21:58;3.50;;;3.30;;
2386;SDS011;49473;50.772;8.768;2023-11-22T13:24:26;6.63;;;6.10;;
2386;SDS011;49473;50.772;8.768;2023-11-22T13:26:53;3.97;;;3.50;;
2386;SDS011;49473;50.772;8.768;2023-11-22T13:29:21;5.63;;;5.03;;
2386;SDS011;49473;50.772;8.768;2023-11-22T13:31:48;11.40;;;6.67;;
2386;SDS011;49473;50.772;8.768;2023-11-22T13:34:17;7.20;;;6.23;;
2386;SDS011;49473;50.772;8.768;2023-11-22T13:36:44;9.17;;;7.47;;
2386;SDS011;49473;50.772;8.768;2023-11-22T13:39:11;9.00;;;7.13;;
2386;SDS011;49473;50.772;8.768;2023-11-22T13:41:40;4.50;;;3.93;;
2386;SDS011;49473;50.772;8.768;2023-11-22T13:44:06;4.23;;;3.93;;
2386;SDS011;49473;50.772;8.768;2023-11-22T13:46:34;8.27;;;6.87;;
2386;SDS011;49473;50.772;8.768;2023-11-22T13:49:01;16.20;;;14.00;;
2386;SDS011;49473;50.772;8.768;2023-11-22T13:51:29;8.00;;;7.20;;
2386;SDS011;49473;50.772;8.768;2023-11-22T13:53:56;10.60;;;7.70;;
2386;SDS011;49473;50.772;8.768;2023-11-22T13:56:23;8.03;;;7.20;;
2386;SDS011;49473;50.772;8.768;2023-11-22T13:58:50;5.40;;;4.10;;
2386;SDS011;49473;50.772;8.768;2023-11-22T14:01:17;6.37;;;5.87;;
2386;SDS011;49473;50.772;8.768;2023-11-22T14:03:47;3.33;;;2.83;;
2386;SDS011;49473;50.772;8.768;2023-11-22T14:06:14;5.97;;;3.73;;
2386;SDS011;49473;50.772;8.768;2023-11-22T14:08:42;3.60;;;3.30;;
2386;SDS011;49473;50.772;8.768;2023-11-22T14:11:09;6.00;;;3.77;;
2386;SDS011;49473;50.772;8.768;2023-11-22T14:13:36;3.63;;;3.30;;
2386;SDS011;49473;50.772;8.768;2023-11-22T14:16:05;3.33;;;3.13;;
2386;SDS011;49473;50.772;8.768;2023-11-22T14:18:32;11.37;;;3.90;;
2386;SDS011;49473;50.772;8.768;2023-11-22T14:21:00;4.40;;;3.73;;
2386;SDS011;49473;50.772;8.768;2023-11-22T14:23:28;4.03;;;3.63;;
2386;SDS011;49473;50.772;8.768;2023-11-22T14:25:54;3.57;;;3.27;;
2386;SDS011;49473;50.772;8.768;2023-11-22T14:28:21;4.07;;;3.53;;
2386;SDS011;49473;50.772;8.768;2023-11-22T14:30:48;3.57;;;3.13;;
2386;SDS011;49473;50.772;8.768;2023-11-22T14:33:19;3.43;;;3.00;;
2386;SDS011;49473;50.772;8.768;2023-11-22T14:35:46;4.93;;;3.10;;
2386;SDS011;49473;50.772;8.768;2023-11-22T14:38:14;5.73;;;3.63;;
2386;SDS011;49473;50.772;8.768;2023-11-22T14:40:42;3.93;;;3.53;;
2386;SDS011;49473;50.772;8.768;2023-11-22T14:43:09;4.23;;;3.60;;
2386;SDS011;49473;50.772;8.768;2023-11-22T14:45:36;4.13;;;3.60;;
2386;SDS011;49473;50.772;8.768;2023-11-22T14:48:04;3.40;;;2.87;;
2386;SDS011;49473;50.772;8.768;2023-11-22T14:50:32;3.83;;;3.40;;
2386;SDS011;49473;50.772;8.768;2023-11-22T14:52:59;5.20;;;3.70;;
2386;SDS011;49473;50.772;8.768;2023-11-22T14:55:27;4.53;;;4.03;;
2386;SDS011;49473;50.772;8.768;2023-11-22T14:57:54;4.43;;;3.87;;
2386;SDS011;49473;50.772;8.768;2023-11-22T15:00:22;3.83;;;3.50;;
2386;SDS011;49473;50.772;8.768;2023-11-22T15:02:50;5.07;;;4.00;;
2386;SDS011;49473;50.772;8.768;2023-11-22T15:05:18;4.00;;;3.53;;